sensor_id;sensor_type;location;lat;lon;timestamp;temperature;humidity
1888;DHT22;944;51.574;6.980;2023-02-15T00:02:06;2.80;99.90
1888;DHT22;944;51.574;6.980;2023-02-15T00:04:41;2.70;99.90
1888;DHT22;944;51.574;6.980;2023-02-15T00:07:19;2.70;99.90
1888;DHT22;944;51.574;6.980;2023-02-15T00:10:08;2.70;99.90
1888;DHT22;944;51.574;6.980;2023-02-15T00:12:46;2.70;99.90
1888;DHT22;944;51.574;6.980;2023-02-15T00:15:18;2.60;99.90
1888;DHT22;944;51.574;6.980;2023-02-15T00:18:03;2.60;99.90
1888;DHT22;944;51.574;6.980;2023-02-15T00:20:49;2.50;99.90
1888;DHT22;944;51.574;6.980;2023-02-15T00:23:43;2.60;99.90
1888;DHT22;944;51.574;6.980;2023-02-15T00:26:19;2.50;99.90
1888;DHT22;944;51.574;6.980;2023-02-15T00:29:27;2.40;99.90
1888;DHT22;944;51.574;6.980;2023-02-15T00:32:49;2.40;99.90
1888;DHT22;944;51.574;6.980;2023-02-15T00:35:41;2.30;99.90
1888;DHT22;944;51.574;6.980;2023-02-15T00:38:25;2.20;99.90
1888;DHT22;944;51.574;6.980;2023-02-15T00:41:09;2.30;99.90
1888;DHT22;944;51.574;6.980;2023-02-15T00:43:48;2.30;99.90
1888;DHT22;944;51.574;6.980;2023-02-15T00:46:22;2.30;99.90
1888;DHT22;944;51.574;6.980;2023-02-15T00:48:54;2.30;99.90
1888;DHT22;944;51.574;6.980;2023-02-15T00:51:25;2.40;99.90
1888;DHT22;944;51.574;6.980;2023-02-15T00:54:01;2.50;99.90
1888;DHT22;944;51.574;6.980;2023-02-15T00:59:04;2.50;99.90
1888;DHT22;944;51.574;6.980;2023-02-15T01:01:33;2.40;99.90
1888;DHT22;944;51.574;6.980;2023-02-15T01:04:16;2.30;99.90
1888;DHT22;944;51.574;6.980;2023-02-15T01:06:48;2.20;99.90
1888;DHT22;944;51.574;6.980;2023-02-15T01:09:19;2.10;99.90
1888;DHT22;944;51.574;6.980;2023-02-15T01:11:52;2.10;99.90
1888;DHT22;944;51.574;6.980;2023-02-15T01:14:24;2.00;99.90
1888;DHT22;944;51.574;6.980;2023-02-15T01:16:57;2.00;1.00
1888;DHT22;944;51.574;6.980;2023-02-15T01:19:27;2.00;1.00
1888;DHT22;944;51.574;6.980;2023-02-15T01:22:06;1.80;1.00
1888;DHT22;944;51.574;6.980;2023-02-15T01:24:35;2.00;5.90
1888;DHT22;944;51.574;6.980;2023-02-15T01:27:06;1.80;1.00
1888;DHT22;944;51.574;6.980;2023-02-15T01:29:35;2.00;99.90
1888;DHT22;944;51.574;6.980;2023-02-15T01:32:06;1.80;99.90
1888;DHT22;944;51.574;6.980;2023-02-15T01:34:35;1.90;99.90
1888;DHT22;944;51.574;6.980;2023-02-15T01:37:12;1.80;99.90
1888;DHT22;944;51.574;6.980;2023-02-15T01:39:50;1.80;99.90
1888;DHT22;944;51.574;6.980;2023-02-15T01:42:21;2.00;99.90
1888;DHT22;944;51.574;6.980;2023-02-15T01:44:53;1.90;99.90
1888;DHT22;944;51.574;6.980;2023-02-15T01:47:29;2.00;99.90
1888;DHT22;944;51.574;6.980;2023-02-15T01:50:08;2.00;99.90
1888;DHT22;944;51.574;6.980;2023-02-15T01:52:47;1.90;99.90
1888;DHT22;944;51.574;6.980;2023-02-15T01:55:20;1.80;99.90
1888;DHT22;944;51.574;6.980;2023-02-15T01:57:54;1.70;99.90
1888;DHT22;944;51.574;6.980;2023-02-15T02:00:24;1.70;99.90
1888;DHT22;944;51.574;6.980;2023-02-15T02:02:55;1.50;99.90
1888;DHT22;944;51.574;6.980;2023-02-15T02:05:24;1.70;99.90
1888;DHT22;944;51.574;6.980;2023-02-15T02:07:57;1.80;99.90
1888;DHT22;944;51.574;6.980;2023-02-15T02:10:26;1.80;99.90
1888;DHT22;944;51.574;6.980;2023-02-15T02:13:10;1.80;99.90
1888;DHT22;944;51.574;6.980;2023-02-15T02:15:49;1.70;99.90
1888;DHT22;944;51.574;6.980;2023-02-15T02:18:50;1.50;99.90
1888;DHT22;944;51.574;6.980;2023-02-15T02:22:13;1.50;99.90
1888;DHT22;944;51.574;6.980;2023-02-15T02:29:18;1.40;99.90
1888;DHT22;944;51.574;6.980;2023-02-15T02:35:33;1.30;99.90
1888;DHT22;944;51.574;6.980;2023-02-15T02:38:11;1.50;99.90
1888;DHT22;944;51.574;6.980;2023-02-15T02:40:50;1.20;99.90
1888;DHT22;944;51.574;6.980;2023-02-15T02:43:24;1.20;99.90
1888;DHT22;944;51.574;6.980;2023-02-15T02:45:58;1.20;99.90
1888;DHT22;944;51.574;6.980;2023-02-15T02:48:32;1.20;99.90
1888;DHT22;944;51.574;6.980;2023-02-15T02:51:01;1.20;99.90
1888;DHT22;944;51.574;6.980;2023-02-15T02:53:30;1.20;99.90
1888;DHT22;944;51.574;6.980;2023-02-15T02:56:06;1.20;99.90
1888;DHT22;944;51.574;6.980;2023-02-15T02:58:41;1.30;99.90
1888;DHT22;944;51.574;6.980;2023-02-15T03:01:14;1.10;99.90
1888;DHT22;944;51.574;6.980;2023-02-15T03:03:45;1.10;99.90
1888;DHT22;944;51.574;6.980;2023-02-15T03:06:17;1.10;99.90
1888;DHT22;944;51.574;6.980;2023-02-15T03:08:54;1.10;99.90
1888;DHT22;944;51.574;6.980;2023-02-15T03:11:28;1.00;99.90
1888;DHT22;944;51.574;6.980;2023-02-15T03:13:57;1.00;99.90
1888;DHT22;944;51.574;6.980;2023-02-15T03:16:26;1.00;99.90
1888;DHT22;944;51.574;6.980;2023-02-15T03:18:57;1.20;99.90
1888;DHT22;944;51.574;6.980;2023-02-15T03:21:32;1.00;99.90
1888;DHT22;944;51.574;6.980;2023-02-15T03:24:07;1.00;99.90
1888;DHT22;944;51.574;6.980;2023-02-15T03:26:41;1.00;99.90
1888;DHT22;944;51.574;6.980;2023-02-15T03:29:17;1.00;99.90
1888;DHT22;944;51.574;6.980;2023-02-15T03:33:12;1.00;99.90
1888;DHT22;944;51.574;6.980;2023-02-15T03:35:59;1.00;99.90
1888;DHT22;944;51.574;6.980;2023-02-15T03:46:21;0.90;99.90
1888;DHT22;944;51.574;6.980;2023-02-15T03:50:01;1.00;99.90
1888;DHT22;944;51.574;6.980;2023-02-15T03:53:02;0.80;99.90
1888;DHT22;944;51.574;6.980;2023-02-15T04:03:54;0.70;99.90
1888;DHT22;944;51.574;6.980;2023-02-15T04:14:37;0.80;99.90
1888;DHT22;944;51.574;6.980;2023-02-15T04:19:26;0.70;99.90
1888;DHT22;944;51.574;6.980;2023-02-15T05:20:33;0.60;99.90
1888;DHT22;944;51.574;6.980;2023-02-15T05:31:33;0.70;99.90
1888;DHT22;944;51.574;6.980;2023-02-15T05:36:58;0.70;99.90
1888;DHT22;944;51.574;6.980;2023-02-15T05:39:51;0.70;99.90
1888;DHT22;944;51.574;6.980;2023-02-15T06:25:03;0.60;99.90
1888;DHT22;944;51.574;6.980;2023-02-15T06:35:49;0.70;99.90
1888;DHT22;944;51.574;6.980;2023-02-15T06:46:46;0.60;99.90
1888;DHT22;944;51.574;6.980;2023-02-15T06:49:51;0.60;99.90
1888;DHT22;944;51.574;6.980;2023-02-15T06:52:36;0.60;99.90
1888;DHT22;944;51.574;6.980;2023-02-15T06:56:48;0.70;99.90
1888;DHT22;944;51.574;6.980;2023-02-15T06:58:21;0.50;99.90
1888;DHT22;944;51.574;6.980;2023-02-15T07:00:53;0.50;99.90
1888;DHT22;944;51.574;6.980;2023-02-15T08:16:13;4.00;99.90
1888;DHT22;944;51.574;6.980;2023-02-15T08:18:58;4.20;99.90
1888;DHT22;944;51.574;6.980;2023-02-15T08:22:10;4.50;99.90
1888;DHT22;944;51.574;6.980;2023-02-15T09:20:13;6.70;99.90
1888;DHT22;944;51.574;6.980;2023-02-15T10:07:07;7.40;99.90
1888;DHT22;944;51.574;6.980;2023-02-15T10:10:24;7.50;99.90
1888;DHT22;944;51.574;6.980;2023-02-15T10:18:04;7.80;99.90
1888;DHT22;944;51.574;6.980;2023-02-15T10:36:24;8.80;99.90
1888;DHT22;944;51.574;6.980;2023-02-15T10:47:45;9.30;99.90
1888;DHT22;944;51.574;6.980;2023-02-15T11:01:01;9.90;99.90
1888;DHT22;944;51.574;6.980;2023-02-15T11:07:12;10.00;99.90
1888;DHT22;944;51.574;6.980;2023-02-15T11:17:23;10.40;99.90
1888;DHT22;944;51.574;6.980;2023-02-15T11:23:56;10.20;99.90
1888;DHT22;944;51.574;6.980;2023-02-15T11:33:46;10.70;99.90
1888;DHT22;944;51.574;6.980;2023-02-15T11:40:02;10.90;99.90
1888;DHT22;944;51.574;6.980;2023-02-15T11:43:20;11.00;99.90
1888;DHT22;944;51.574;6.980;2023-02-15T12:04:32;11.40;99.90
1888;DHT22;944;51.574;6.980;2023-02-15T12:14:58;11.30;99.90
1888;DHT22;944;51.574;6.980;2023-02-15T12:17:30;11.40;99.90
1888;DHT22;944;51.574;6.980;2023-02-15T12:20:04;11.30;99.90
1888;DHT22;944;51.574;6.980;2023-02-15T12:22:49;11.30;99.90
1888;DHT22;944;51.574;6.980;2023-02-15T12:25:24;11.40;99.90
1888;DHT22;944;51.574;6.980;2023-02-15T12:31:57;11.40;99.90
1888;DHT22;944;51.574;6.980;2023-02-15T12:34:29;11.40;99.90
1888;DHT22;944;51.574;6.980;2023-02-15T12:37:02;11.40;99.90
1888;DHT22;944;51.574;6.980;2023-02-15T12:39:52;11.40;99.90
1888;DHT22;944;51.574;6.980;2023-02-15T12:42:33;11.30;99.90
1888;DHT22;944;51.574;6.980;2023-02-15T12:45:51;11.40;99.90
1888;DHT22;944;51.574;6.980;2023-02-15T13:04:13;11.90;99.90
1888;DHT22;944;51.574;6.980;2023-02-15T13:19:14;11.80;99.90
1888;DHT22;944;51.574;6.980;2023-02-15T14:58:22;12.20;99.90
1888;DHT22;944;51.574;6.980;2023-02-15T15:27:55;11.70;99.90
1888;DHT22;944;51.574;6.980;2023-02-15T15:30:50;11.60;99.90
1888;DHT22;944;51.574;6.980;2023-02-15T15:40:55;11.70;99.90
1888;DHT22;944;51.574;6.980;2023-02-15T15:47:56;11.80;99.90
1888;DHT22;944;51.574;6.980;2023-02-15T15:51:02;11.70;99.90
1888;DHT22;944;51.574;6.980;2023-02-15T15:53:42;11.60;99.90
1888;DHT22;944;51.574;6.980;2023-02-15T15:56:19;11.70;99.90
1888;DHT22;944;51.574;6.980;2023-02-15T15:59:19;11.50;99.90
1888;DHT22;944;51.574;6.980;2023-02-15T16:01:49;11.40;99.90
1888;DHT22;944;51.574;6.980;2023-02-15T16:07:57;11.20;99.90
1888;DHT22;944;51.574;6.980;2023-02-15T16:10:29;11.20;99.90
1888;DHT22;944;51.574;6.980;2023-02-15T16:13:04;11.10;99.90
1888;DHT22;944;51.574;6.980;2023-02-15T16:15:44;11.00;99.90
1888;DHT22;944;51.574;6.980;2023-02-15T16:18:25;10.90;99.90
1888;DHT22;944;51.574;6.980;2023-02-15T16:25:05;10.80;99.90
1888;DHT22;944;51.574;6.980;2023-02-15T16:28:15;10.60;99.90
1888;DHT22;944;51.574;6.980;2023-02-15T16:30:45;10.60;99.90
1888;DHT22;944;51.574;6.980;2023-02-15T16:33:22;10.50;99.90
1888;DHT22;944;51.574;6.980;2023-02-15T16:36:00;10.50;99.90
1888;DHT22;944;51.574;6.980;2023-02-15T16:39:12;10.40;99.90
1888;DHT22;944;51.574;6.980;2023-02-15T16:45:28;10.20;99.90
1888;DHT22;944;51.574;6.980;2023-02-15T16:48:08;10.10;99.90
1888;DHT22;944;51.574;6.980;2023-02-15T16:54:22;10.00;99.90
1888;DHT22;944;51.574;6.980;2023-02-15T16:56:55;10.00;99.90
1888;DHT22;944;51.574;6.980;2023-02-15T17:03:20;9.90;99.90
1888;DHT22;944;51.574;6.980;2023-02-15T17:05:51;9.80;99.90
1888;DHT22;944;51.574;6.980;2023-02-15T17:08:44;9.70;99.90
1888;DHT22;944;51.574;6.980;2023-02-15T17:11:39;9.60;99.90
1888;DHT22;944;51.574;6.980;2023-02-15T17:14:28;9.70;99.90
1888;DHT22;944;51.574;6.980;2023-02-15T17:17:07;9.50;99.90
1888;DHT22;944;51.574;6.980;2023-02-15T17:19:47;9.40;99.90
1888;DHT22;944;51.574;6.980;2023-02-15T17:23:05;9.40;99.90
1888;DHT22;944;51.574;6.980;2023-02-15T17:25:35;9.30;99.90
1888;DHT22;944;51.574;6.980;2023-02-15T17:28:04;9.30;99.90
1888;DHT22;944;51.574;6.980;2023-02-15T17:30:34;9.20;99.90
1888;DHT22;944;51.574;6.980;2023-02-15T17:33:19;9.20;99.90
1888;DHT22;944;51.574;6.980;2023-02-15T17:36:11;9.20;99.90
1888;DHT22;944;51.574;6.980;2023-02-15T17:38:40;9.20;99.90
1888;DHT22;944;51.574;6.980;2023-02-15T17:41:27;9.20;99.90
1888;DHT22;944;51.574;6.980;2023-02-15T17:43:54;9.20;99.90
1888;DHT22;944;51.574;6.980;2023-02-15T17:46:24;9.10;99.90
1888;DHT22;944;51.574;6.980;2023-02-15T17:48:53;9.10;99.90
1888;DHT22;944;51.574;6.980;2023-02-15T17:51:22;9.00;99.90
1888;DHT22;944;51.574;6.980;2023-02-15T17:53:50;9.00;99.90
1888;DHT22;944;51.574;6.980;2023-02-15T17:56:31;8.90;99.90
1888;DHT22;944;51.574;6.980;2023-02-15T17:59:04;8.90;99.90
1888;DHT22;944;51.574;6.980;2023-02-15T18:01:42;9.00;99.90
1888;DHT22;944;51.574;6.980;2023-02-15T18:04:30;8.90;99.90
1888;DHT22;944;51.574;6.980;2023-02-15T18:17:37;9.10;99.90
1888;DHT22;944;51.574;6.980;2023-02-15T18:20:20;9.10;99.90
1888;DHT22;944;51.574;6.980;2023-02-15T18:23:14;9.20;99.90
1888;DHT22;944;51.574;6.980;2023-02-15T18:25:50;9.00;99.90
1888;DHT22;944;51.574;6.980;2023-02-15T18:28:38;9.00;99.90
1888;DHT22;944;51.574;6.980;2023-02-15T18:31:12;9.00;99.90
1888;DHT22;944;51.574;6.980;2023-02-15T18:33:49;9.00;99.90
1888;DHT22;944;51.574;6.980;2023-02-15T18:36:44;9.00;99.90
1888;DHT22;944;51.574;6.980;2023-02-15T18:39:35;9.00;99.90
1888;DHT22;944;51.574;6.980;2023-02-15T18:42:18;9.00;99.90
1888;DHT22;944;51.574;6.980;2023-02-15T18:44:53;9.10;99.90
1888;DHT22;944;51.574;6.980;2023-02-15T18:47:24;8.90;99.90
1888;DHT22;944;51.574;6.980;2023-02-15T18:49:52;8.90;99.90
1888;DHT22;944;51.574;6.980;2023-02-15T18:52:23;8.80;99.90
1888;DHT22;944;51.574;6.980;2023-02-15T18:54:59;8.70;99.90
1888;DHT22;944;51.574;6.980;2023-02-15T18:57:35;8.80;99.90
1888;DHT22;944;51.574;6.980;2023-02-15T19:00:44;8.70;99.90
1888;DHT22;944;51.574;6.980;2023-02-15T19:03:12;8.70;99.90
1888;DHT22;944;51.574;6.980;2023-02-15T19:09:18;8.50;99.90
1888;DHT22;944;51.574;6.980;2023-02-15T19:11:53;8.40;99.90
1888;DHT22;944;51.574;6.980;2023-02-15T19:14:26;8.50;99.90
1888;DHT22;944;51.574;6.980;2023-02-15T19:16:56;8.50;99.90
1888;DHT22;944;51.574;6.980;2023-02-15T19:19:30;8.40;99.90
1888;DHT22;944;51.574;6.980;2023-02-15T19:22:07;8.50;99.90
1888;DHT22;944;51.574;6.980;2023-02-15T19:27:49;8.50;99.90
1888;DHT22;944;51.574;6.980;2023-02-15T19:30:18;8.40;99.90
1888;DHT22;944;51.574;6.980;2023-02-15T19:32:50;8.40;99.90
1888;DHT22;944;51.574;6.980;2023-02-15T19:35:20;8.40;99.90
1888;DHT22;944;51.574;6.980;2023-02-15T19:38:00;8.30;99.90
1888;DHT22;944;51.574;6.980;2023-02-15T19:40:35;8.20;99.90
1888;DHT22;944;51.574;6.980;2023-02-15T19:43:12;8.20;99.90
1888;DHT22;944;51.574;6.980;2023-02-15T19:45:41;8.20;99.90
1888;DHT22;944;51.574;6.980;2023-02-15T19:48:12;8.10;99.90
1888;DHT22;944;51.574;6.980;2023-02-15T19:50:42;8.10;99.90
1888;DHT22;944;51.574;6.980;2023-02-15T19:53:20;8.00;99.90
1888;DHT22;944;51.574;6.980;2023-02-15T19:55:48;8.00;99.90
1888;DHT22;944;51.574;6.980;2023-02-15T19:58:15;7.90;99.90
1888;DHT22;944;51.574;6.980;2023-02-15T20:00:46;7.90;99.90
1888;DHT22;944;51.574;6.980;2023-02-15T20:03:15;7.80;99.90
1888;DHT22;944;51.574;6.980;2023-02-15T20:09:25;7.60;99.90
1888;DHT22;944;51.574;6.980;2023-02-15T20:12:00;7.50;99.90
1888;DHT22;944;51.574;6.980;2023-02-15T20:18:11;7.50;99.90
1888;DHT22;944;51.574;6.980;2023-02-15T20:20:42;7.40;99.90
1888;DHT22;944;51.574;6.980;2023-02-15T20:23:16;7.40;99.90
1888;DHT22;944;51.574;6.980;2023-02-15T20:25:45;7.20;99.90
1888;DHT22;944;51.574;6.980;2023-02-15T20:28:16;7.20;99.90
1888;DHT22;944;51.574;6.980;2023-02-15T20:30:49;7.20;99.90
1888;DHT22;944;51.574;6.980;2023-02-15T20:37:00;7.10;99.90
1888;DHT22;944;51.574;6.980;2023-02-15T20:39:29;7.00;99.90
1888;DHT22;944;51.574;6.980;2023-02-15T20:41:57;7.10;99.90
1888;DHT22;944;51.574;6.980;2023-02-15T20:44:30;7.00;99.90
1888;DHT22;944;51.574;6.980;2023-02-15T20:46:58;7.00;99.90
1888;DHT22;944;51.574;6.980;2023-02-15T20:49:27;7.00;99.90
1888;DHT22;944;51.574;6.980;2023-02-15T20:51:57;7.00;99.90
1888;DHT22;944;51.574;6.980;2023-02-15T20:54:33;7.00;99.90
1888;DHT22;944;51.574;6.980;2023-02-15T20:57:04;7.00;99.90
1888;DHT22;944;51.574;6.980;2023-02-15T20:59:33;6.90;99.90
1888;DHT22;944;51.574;6.980;2023-02-15T21:02:09;7.00;99.90
1888;DHT22;944;51.574;6.980;2023-02-15T21:04:48;7.00;99.90
1888;DHT22;944;51.574;6.980;2023-02-15T21:07:18;6.90;99.90
1888;DHT22;944;51.574;6.980;2023-02-15T21:17:00;6.80;99.90
1888;DHT22;944;51.574;6.980;2023-02-15T21:23:11;6.70;99.90
1888;DHT22;944;51.574;6.980;2023-02-15T21:25:41;6.60;99.90
1888;DHT22;944;51.574;6.980;2023-02-15T21:31:57;6.70;99.90
1888;DHT22;944;51.574;6.980;2023-02-15T21:34:31;6.70;99.90
1888;DHT22;944;51.574;6.980;2023-02-15T21:37:01;6.70;99.90
1888;DHT22;944;51.574;6.980;2023-02-15T21:39:31;6.70;99.90
1888;DHT22;944;51.574;6.980;2023-02-15T21:42:08;6.80;99.90
1888;DHT22;944;51.574;6.980;2023-02-15T21:44:54;6.80;99.90
1888;DHT22;944;51.574;6.980;2023-02-15T21:47:53;6.70;99.90
1888;DHT22;944;51.574;6.980;2023-02-15T21:50:22;6.80;99.90
1888;DHT22;944;51.574;6.980;2023-02-15T21:56:48;6.80;99.90
1888;DHT22;944;51.574;6.980;2023-02-15T21:59:17;6.80;99.90
1888;DHT22;944;51.574;6.980;2023-02-15T22:01:52;6.70;99.90
1888;DHT22;944;51.574;6.980;2023-02-15T22:04:43;6.70;99.90
1888;DHT22;944;51.574;6.980;2023-02-15T22:07:20;6.60;99.90
1888;DHT22;944;51.574;6.980;2023-02-15T22:09:48;6.70;99.90
1888;DHT22;944;51.574;6.980;2023-02-15T22:12:16;6.60;99.90
1888;DHT22;944;51.574;6.980;2023-02-15T22:14:51;6.50;99.90
1888;DHT22;944;51.574;6.980;2023-02-15T22:17:20;6.40;99.90
1888;DHT22;944;51.574;6.980;2023-02-15T22:19:53;6.30;99.90
1888;DHT22;944;51.574;6.980;2023-02-15T22:22:24;6.20;99.90
1888;DHT22;944;51.574;6.980;2023-02-15T22:24:51;6.20;99.90
1888;DHT22;944;51.574;6.980;2023-02-15T22:27:21;6.10;99.90
1888;DHT22;944;51.574;6.980;2023-02-15T22:29:54;6.10;99.90
1888;DHT22;944;51.574;6.980;2023-02-15T22:32:25;6.00;99.90
1888;DHT22;944;51.574;6.980;2023-02-15T22:35:03;6.00;99.90
1888;DHT22;944;51.574;6.980;2023-02-15T22:41:15;6.00;99.90
1888;DHT22;944;51.574;6.980;2023-02-15T22:43:44;5.90;99.90
1888;DHT22;944;51.574;6.980;2023-02-15T22:46:28;5.90;99.90
1888;DHT22;944;51.574;6.980;2023-02-15T22:48:58;5.90;99.90
1888;DHT22;944;51.574;6.980;2023-02-15T22:51:31;5.90;99.90
1888;DHT22;944;51.574;6.980;2023-02-15T22:53:59;5.80;99.90
1888;DHT22;944;51.574;6.980;2023-02-15T22:56:33;5.80;99.90
1888;DHT22;944;51.574;6.980;2023-02-15T22:59:04;5.80;99.90
1888;DHT22;944;51.574;6.980;2023-02-15T23:01:36;5.80;99.90
1888;DHT22;944;51.574;6.980;2023-02-15T23:04:04;5.80;99.90
1888;DHT22;944;51.574;6.980;2023-02-15T23:06:32;5.80;99.90
1888;DHT22;944;51.574;6.980;2023-02-15T23:08:59;5.80;99.90
1888;DHT22;944;51.574;6.980;2023-02-15T23:11:26;5.80;99.90
1888;DHT22;944;51.574;6.980;2023-02-15T23:13:53;5.80;99.90
1888;DHT22;944;51.574;6.980;2023-02-15T23:16:20;5.80;99.90
1888;DHT22;944;51.574;6.980;2023-02-15T23:18:48;5.80;99.90
1888;DHT22;944;51.574;6.980;2023-02-15T23:21:20;5.80;99.90
1888;DHT22;944;51.574;6.980;2023-02-15T23:23:50;5.80;99.90
1888;DHT22;944;51.574;6.980;2023-02-15T23:26:26;5.80;99.90
1888;DHT22;944;51.574;6.980;2023-02-15T23:28:57;6.00;99.90
1888;DHT22;944;51.574;6.980;2023-02-15T23:31:30;5.90;99.90
1888;DHT22;944;51.574;6.980;2023-02-15T23:34:01;5.90;99.90
1888;DHT22;944;51.574;6.980;2023-02-15T23:36:38;5.80;99.90
1888;DHT22;944;51.574;6.980;2023-02-15T23:39:12;5.80;99.90
1888;DHT22;944;51.574;6.980;2023-02-15T23:42:13;6.00;99.90
1888;DHT22;944;51.574;6.980;2023-02-15T23:44:42;5.70;99.90
1888;DHT22;944;51.574;6.980;2023-02-15T23:47:17;5.70;99.90
1888;DHT22;944;51.574;6.980;2023-02-15T23:50:15;5.60;99.90
1888;DHT22;944;51.574;6.980;2023-02-15T23:52:43;5.60;99.90
1888;DHT22;944;51.574;6.980;2023-02-15T23:55:11;5.60;99.90
1888;DHT22;944;51.574;6.980;2023-02-15T23:57:39;5.60;99.90
